Machias, Washington
Current Conditions -  °F | °C
As of 4:53 PM on Wednesday 22 Oct 2014 (Local Time) from KPAE Reporting Station
Light Rain Light Rain  
Wind Chill: 54°   Ceiling: 6000
Heat Index: 54°   Visibility: 8mi
Dew Point: 52°   Wind: 9mph
Humidity: 93%   Direction: 140°SE
Pressure: 29.61"   Gusts: NA
Location:  47.9468°N, 122.012°W
Report Text: KPAE 222353Z AUTO 14008KT 8SM -RA FEW034 BKN060 OVC085 12/11 A2961 RMK AO2 PRESFR SLP025 P0007 60024 T01220111 10133 20122 58027 TSNO
Loading
Personal Weather Stations






























Interactive Weather Map
Tropical Storm Tracking
New forecast layout! Learn more

10-Day Weather Forecast

Advertisements
Track Severe Weather on mobile